Time;durP1;ratioP1;P1;durP2;ratioP2;P2;SDS_P1;SDS_P2;PMS_P1;PMS_P2;Temp;Humidity;BMP_temperature;BMP_pressure;BME280_temperature;BME280_humidity;BME280_pressure;Samples;Min_cycle;Max_cycle;Signal;HPM_P1;HPM_P2
2022/01/21 13:56:00;;;;;;;14.03;10.17;;;11.50;66.20;;;;;;5352068;27;20640;-31
2022/01/21 13:58:33;;;;;;;13.45;8.95;;;11.60;65.80;;;;;;5350665;27;20153;-39
2022/01/21 14:01:09;;;;;;;13.20;7.27;;;11.70;66.80;;;;;;5351506;27;20042;-37
2022/01/21 14:03:42;;;;;;;9.87;5.67;;;11.70;66.00;;;;;;5351562;27;20133;-36
2022/01/21 14:06:19;;;;;;;7.82;4.90;;;11.70;65.90;;;;;;5351757;27;20049;-37
2022/01/21 14:08:53;;;;;;;17.40;9.37;;;11.70;65.70;;;;;;5351554;27;20118;-34
2022/01/21 14:11:35;;;;;;;30.73;19.90;;;11.70;66.20;;;;;;5352033;27;20046;-33
2022/01/21 14:14:08;;;;;;;13.77;7.57;;;11.70;66.00;;;;;;5351790;27;20109;-34
2022/01/21 14:16:46;;;;;;;21.17;8.60;;;11.70;65.50;;;;;;5350431;27;20057;-39
2022/01/21 14:19:21;;;;;;;65.67;15.77;;;11.70;65.70;;;;;;5351898;27;20077;-35
2022/01/21 14:22:03;;;;;;;14.77;8.70;;;11.70;65.40;;;;;;5332214;27;20113;-36
2022/01/21 14:24:41;;;;;;;10.30;7.27;;;11.80;65.90;;;;;;5351659;27;20234;-35
2022/01/21 14:27:19;;;;;;;22.37;20.10;;;11.80;66.20;;;;;;5351405;27;20042;-34
2022/01/21 14:29:59;;;;;;;6.80;4.33;;;11.90;66.20;;;;;;5351600;27;20046;-31
2022/01/21 14:32:37;;;;;;;10.50;5.70;;;11.80;65.30;;;;;;5351579;27;20118;-34
2022/01/21 14:35:13;;;;;;;14.57;7.43;;;11.90;65.70;;;;;;5351354;27;20118;-37
2022/01/21 14:37:50;;;;;;;20.80;11.13;;;11.90;66.00;;;;;;5350988;27;20046;-33
2022/01/21 14:40:24;;;;;;;26.03;18.13;;;12.00;65.60;;;;;;5350126;27;20498;-36
2022/01/21 14:43:07;;;;;;;20.75;13.50;;;12.10;65.50;;;;;;5350985;27;20049;-33
2022/01/21 14:45:41;;;;;;;13.67;8.87;;;12.10;65.00;;;;;;5350999;27;20487;-39
2022/01/21 14:48:13;;;;;;;17.05;11.30;;;12.20;65.20;;;;;;5349895;27;20046;-41
2022/01/21 14:50:45;;;;;;;21.40;12.15;;;12.20;65.00;;;;;;5349415;27;20138;-37
2022/01/21 14:53:16;;;;;;;28.90;18.67;;;12.20;67.50;;;;;;5350928;27;20049;-31
2022/01/21 14:55:49;;;;;;;28.00;16.10;;;12.20;65.00;;;;;;5350518;27;20100;-34
2022/01/21 14:58:23;;;;;;;10.90;6.55;;;12.30;65.70;;;;;;5350709;27;20468;-35
2022/01/21 15:01:08;;;;;;;15.27;11.10;;;12.30;64.90;;;;;;5342177;27;20085;-34
2022/01/21 15:03:42;;;;;;;11.93;9.83;;;12.30;64.30;;;;;;5336042;27;20047;-34
2022/01/21 15:09:07;;;;;;;9.67;6.20;;;12.20;64.60;;;;;;5336760;27;20094;-35
2022/01/21 15:11:57;;;;;;;10.00;5.83;;;12.20;63.90;;;;;;5336675;27;20422;-34
2022/01/21 15:14:45;;;;;;;37.23;17.43;;;12.20;63.90;;;;;;5320474;27;20070;-37
2022/01/21 15:17:17;;;;;;;24.47;12.40;;;12.30;64.70;;;;;;5335642;27;20049;-35
2022/01/21 15:19:49;;;;;;;20.07;9.87;;;12.30;64.90;;;;;;5319622;27;20126;-33
2022/01/21 15:22:39;;;;;;;30.23;13.83;;;12.30;65.10;;;;;;5320281;27;20042;-36
2022/01/21 15:25:10;;;;;;;13.17;7.40;;;12.30;65.20;;;;;;5314733;27;20099;-39
2022/01/21 15:27:44;;;;;;;9.93;5.20;;;12.30;65.10;;;;;;5317891;27;20476;-40
2022/01/21 15:30:16;;;;;;;15.83;8.10;;;12.30;65.20;;;;;;5311623;27;20482;-35
2022/01/21 15:32:47;;;;;;;24.77;12.77;;;12.20;64.60;;;;;;5320113;27;20043;-37
2022/01/21 15:35:18;;;;;;;16.37;10.47;;;12.20;65.20;;;;;;5317300;27;20058;-37
2022/01/21 15:37:49;;;;;;;15.43;9.17;;;12.20;65.50;;;;;;5317268;27;20408;-39
2022/01/21 15:40:20;;;;;;;10.77;7.20;;;12.20;65.30;;;;;;5314251;27;20525;-39
2022/01/21 15:42:51;;;;;;;9.23;5.33;;;12.10;64.80;;;;;;5314446;27;20047;-34
2022/01/21 15:45:22;;;;;;;8.70;5.23;;;12.00;65.50;;;;;;5319601;27;20039;-38
2022/01/21 15:47:53;;;;;;;15.60;9.73;;;12.00;64.90;;;;;;5319187;27;20039;-37
2022/01/21 15:50:24;;;;;;;7.33;3.50;;;12.00;65.90;;;;;;5304865;27;20058;-35
2022/01/21 15:52:55;;;;;;;13.67;8.60;;;12.00;65.30;;;;;;5317907;27;20055;-33
2022/01/21 15:55:26;;;;;;;9.13;6.37;;;12.00;65.10;;;;;;5315656;27;20054;-38
2022/01/21 15:57:57;;;;;;;8.47;4.83;;;12.10;65.80;;;;;;5313769;27;20035;-39
2022/01/21 16:00:28;;;;;;;21.97;14.87;;;12.10;65.80;;;;;;5315037;27;20160;-30
2022/01/21 16:03:04;;;;;;;27.90;21.87;;;12.20;65.50;;;;;;5315262;27;20047;-34
2022/01/21 16:05:35;;;;;;;21.37;17.43;;;12.30;65.50;;;;;;5315115;27;20042;-35
2022/01/21 16:08:06;;;;;;;35.70;20.07;;;12.40;65.60;;;;;;5320117;27;20407;-33
2022/01/21 16:10:37;;;;;;;11.33;6.43;;;12.50;65.30;;;;;;5321049;27;20054;-38
2022/01/21 16:13:08;;;;;;;9.37;5.47;;;12.60;65.00;;;;;;5313178;27;20046;-30
2022/01/21 16:15:39;;;;;;;19.17;11.67;;;12.70;64.50;;;;;;5321902;27;20484;-34
2022/01/21 16:18:10;;;;;;;15.20;10.07;;;12.80;64.60;;;;;;5318831;27;20049;-32
2022/01/21 16:20:44;;;;;;;22.33;13.50;;;12.90;63.80;;;;;;5319354;27;20054;-36
2022/01/21 16:23:16;;;;;;;22.13;15.00;;;12.90;63.60;;;;;;5328033;27;20042;-39
2022/01/21 16:25:47;;;;;;;15.93;10.23;;;13.00;63.50;;;;;;5322618;27;20043;-36
2022/01/21 16:28:18;;;;;;;12.70;8.43;;;13.00;63.30;;;;;;5312825;27;20054;-35
2022/01/21 16:30:53;;;;;;;10.87;5.87;;;13.00;63.40;;;;;;5313724;27;20110;-35
2022/01/21 16:33:28;;;;;;;10.83;9.30;;;13.00;63.50;;;;;;5320878;27;20057;-30
2022/01/21 16:36:00;;;;;;;18.03;14.93;;;13.00;63.80;;;;;;5314571;27;20551;-33
2022/01/21 16:38:31;;;;;;;69.47;60.63;;;13.00;63.50;;;;;;5320752;27;20404;-34
2022/01/21 16:41:02;;;;;;;33.30;27.47;;;13.00;63.90;;;;;;5317261;27;20047;-37
2022/01/21 16:51:09;;;;;;;8.13;4.33;;;13.00;63.50;;;;;;5302450;27;20639;-32
2022/01/21 16:53:41;;;;;;;39.33;29.63;;;12.80;63.50;;;;;;5288033;28;20117;-34
2022/01/21 16:56:12;;;;;;;12.53;9.20;;;12.80;63.60;;;;;;5293041;28;20079;-36
2022/01/21 16:58:44;;;;;;;22.87;11.47;;;12.80;63.60;;;;;;5295164;28;20047;-31
2022/01/21 17:01:15;;;;;;;39.67;23.00;;;12.80;63.20;;;;;;5286297;28;20503;-36
2022/01/21 17:03:46;;;;;;;35.10;27.57;;;12.90;63.60;;;;;;5301736;28;20054;-35
2022/01/21 17:06:18;;;;;;;21.13;13.50;;;12.80;63.10;;;;;;5295904;28;20047;-32
2022/01/21 17:08:49;;;;;;;91.33;59.10;;;12.80;63.20;;;;;;5292038;28;20568;-35
2022/01/21 17:11:39;;;;;;;85.00;57.47;;;12.80;63.40;;;;;;5297640;27;20116;-37
2022/01/21 17:14:10;;;;;;;38.33;23.43;;;12.80;63.40;;;;;;5282536;28;20048;-34
2022/01/21 17:16:41;;;;;;;22.10;15.37;;;12.80;63.50;;;;;;5291589;28;20032;-34
2022/01/21 17:19:14;;;;;;;20.67;17.47;;;12.80;63.70;;;;;;5290316;28;20130;-33
2022/01/21 17:21:45;;;;;;;30.95;20.67;;;12.80;63.70;;;;;;5291902;28;20115;-39
2022/01/21 17:24:17;;;;;;;25.27;18.03;;;12.80;63.80;;;;;;5297425;28;20515;-35
2022/01/21 17:26:48;;;;;;;11.70;7.23;;;12.70;64.00;;;;;;5288442;27;20108;-35
2022/01/21 17:29:19;;;;;;;18.40;9.50;;;12.70;63.90;;;;;;5284959;28;20047;-35
2022/01/21 17:31:50;;;;;;;17.23;9.77;;;12.60;63.60;;;;;;5284716;28;20048;-33
2022/01/21 17:34:22;;;;;;;13.40;7.80;;;12.60;63.60;;;;;;5284627;28;20079;-34
2022/01/21 17:36:53;;;;;;;11.27;7.07;;;12.60;63.50;;;;;;5283213;28;20465;-34
2022/01/21 17:39:24;;;;;;;11.70;7.87;;;12.50;63.80;;;;;;5284756;28;20477;-30
2022/01/21 17:41:55;;;;;;;16.03;11.47;;;12.50;63.80;;;;;;5284786;28;20093;-31
2022/01/21 17:44:26;;;;;;;16.87;11.03;;;12.50;64.10;;;;;;5284151;28;20048;-33
2022/01/21 17:46:57;;;;;;;19.60;9.13;;;12.40;63.80;;;;;;5265422;28;20496;-35
2022/01/21 17:49:28;;;;;;;15.07;8.87;;;12.50;63.80;;;;;;5284254;28;20052;-31
2022/01/21 17:51:59;;;;;;;19.27;11.43;;;12.50;63.60;;;;;;5284628;28;20153;-34
2022/01/21 17:54:31;;;;;;;49.70;29.80;;;12.60;63.50;;;;;;5284199;28;20036;-37
2022/01/21 17:57:02;;;;;;;17.87;9.83;;;12.70;63.20;;;;;;5270507;28;20059;-42
2022/01/21 17:59:33;;;;;;;13.00;8.33;;;12.70;63.20;;;;;;5269766;28;20048;-35
2022/01/21 18:02:04;;;;;;;12.97;8.63;;;12.70;62.80;;;;;;5270106;28;20447;-37
2022/01/21 18:04:36;;;;;;;16.10;9.27;;;12.70;62.80;;;;;;5270053;28;20056;-34
2022/01/21 18:07:07;;;;;;;20.87;10.97;;;12.70;62.90;;;;;;5268988;28;20131;-39
2022/01/21 18:09:43;;;;;;;13.03;6.60;;;12.80;62.90;;;;;;5269905;28;20454;-35
2022/01/21 18:12:14;;;;;;;11.20;6.07;;;12.80;63.00;;;;;;5270047;28;20453;-33
2022/01/21 18:14:46;;;;;;;15.67;8.73;;;12.70;62.70;;;;;;5269719;28;20085;-34
2022/01/21 18:17:17;;;;;;;16.33;7.80;;;12.70;62.80;;;;;;5269975;28;20048;-35
2022/01/21 18:19:48;;;;;;;11.30;7.33;;;12.70;62.90;;;;;;5269753;28;20097;-37
2022/01/21 18:22:19;;;;;;;48.47;25.13;;;12.60;62.90;;;;;;5268481;28;20040;-36
2022/01/21 18:24:51;;;;;;;13.30;7.63;;;12.60;63.10;;;;;;5270308;28;20044;-36
2022/01/21 18:27:22;;;;;;;34.60;22.00;;;12.50;62.70;;;;;;5271979;28;20485;-35
2022/01/21 18:29:55;;;;;;;26.67;16.43;;;12.50;62.80;;;;;;5270852;28;20442;-31
2022/01/21 18:32:26;;;;;;;39.47;21.55;;;12.50;62.90;;;;;;5271734;28;20127;-33
2022/01/21 18:34:57;;;;;;;30.67;15.83;;;12.50;63.00;;;;;;5271611;28;20056;-37
2022/01/21 18:37:28;;;;;;;31.87;21.10;;;12.50;63.10;;;;;;5271731;28;20097;-32
2022/01/21 18:40:00;;;;;;;18.83;9.37;;;12.50;62.80;;;;;;5271697;28;20051;-36
2022/01/21 18:42:33;;;;;;;23.70;12.47;;;12.50;63.10;;;;;;5271833;28;20067;-40
2022/01/21 18:45:13;;;;;;;17.57;9.20;;;12.50;63.20;;;;;;5271192;28;20055;-34
2022/01/21 18:47:44;;;;;;;23.47;16.00;;;12.50;62.80;;;;;;5271525;28;20050;-31
2022/01/21 18:50:19;;;;;;;15.30;10.80;;;12.50;63.70;;;;;;5271461;28;20053;-37
2022/01/21 18:52:52;;;;;;;26.83;18.83;;;12.60;63.30;;;;;;5271249;28;20064;-36
2022/01/21 18:55:24;;;;;;;35.23;22.57;;;12.60;63.30;;;;;;5271595;28;20055;-33
2022/01/21 18:57:55;;;;;;;18.33;14.63;;;12.60;63.60;;;;;;5271266;28;20497;-35
2022/01/21 19:00:26;;;;;;;27.40;18.47;;;12.50;63.10;;;;;;5270052;28;20052;-37
2022/01/21 19:02:59;;;;;;;18.90;13.00;;;12.60;63.40;;;;;;5269254;28;20131;-35
2022/01/21 19:05:34;;;;;;;20.38;13.98;;;12.60;63.40;;;;;;5271045;28;20060;-32
2022/01/21 19:08:05;;;;;;;21.37;15.47;;;12.60;63.50;;;;;;5269982;28;20044;-34
2022/01/21 19:10:36;;;;;;;28.10;17.97;;;12.60;63.30;;;;;;5270695;28;20064;-32
2022/01/21 19:13:08;;;;;;;20.97;12.67;;;12.60;63.30;;;;;;5270769;28;20040;-35
2022/01/21 19:15:39;;;;;;;21.63;13.03;;;12.60;63.30;;;;;;5270646;28;20048;-37
2022/01/21 19:18:10;;;;;;;16.20;11.30;;;12.60;63.20;;;;;;5271043;28;20435;-33
2022/01/21 19:20:42;;;;;;;19.37;12.87;;;12.60;63.30;;;;;;5270430;28;20044;-31
2022/01/21 19:23:24;;;;;;;14.53;10.33;;;12.60;63.90;;;;;;5270655;28;20079;-37
2022/01/21 19:25:58;;;;;;;14.27;10.00;;;12.50;63.90;;;;;;5271230;28;20438;-35
2022/01/21 19:28:31;;;;;;;19.43;11.40;;;12.50;64.40;;;;;;5269456;28;20436;-32
2022/01/21 19:31:05;;;;;;;17.25;11.88;;;12.50;65.20;;;;;;5270533;28;20052;-37
2022/01/21 19:33:36;;;;;;;21.00;12.47;;;12.50;65.90;;;;;;5262635;28;20074;-32
2022/01/21 19:36:08;;;;;;;15.83;11.37;;;12.40;67.10;;;;;;5258156;28;20047;-35
2022/01/21 19:38:39;;;;;;;22.00;15.83;;;12.30;68.10;;;;;;5267109;28;20040;-33
2022/01/21 19:41:11;;;;;;;10.60;7.80;;;12.30;69.10;;;;;;5267929;28;20052;-33
2022/01/21 19:43:42;;;;;;;9.37;6.07;;;12.20;69.90;;;;;;5267720;28;20439;-36
2022/01/21 19:46:14;;;;;;;8.00;5.57;;;12.20;70.50;;;;;;5268108;28;20040;-35
2022/01/21 19:48:46;;;;;;;10.20;7.30;;;12.20;71.20;;;;;;5267917;28;20044;-35
2022/01/21 19:51:18;;;;;;;14.47;7.67;;;12.20;71.60;;;;;;5267822;28;20079;-35
2022/01/21 19:53:49;;;;;;;7.50;4.80;;;12.20;71.90;;;;;;5267975;28;20040;-35
2022/01/21 19:56:25;;;;;;;11.97;7.13;;;12.20;72.30;;;;;;5266253;28;20048;-33
2022/01/21 20:01:44;;;;;;;19.50;10.93;;;12.20;72.60;;;;;;5267804;28;20040;-35
2022/01/21 20:09:43;;;;;;;9.83;5.60;;;12.20;72.90;;;;;;5267529;28;20124;-38
2022/01/21 20:14:53;;;;;;;10.20;5.90;;;12.20;73.10;;;;;;5267202;28;20048;-36
2022/01/21 20:17:43;;;;;;;11.30;6.10;;;12.20;73.60;;;;;;5267440;28;20044;-34
2022/01/21 20:20:14;;;;;;;15.17;8.97;;;12.20;73.20;;;;;;5253424;28;20044;-34
2022/01/21 20:22:45;;;;;;;10.67;6.83;;;12.20;73.40;;;;;;5267575;28;20067;-35
2022/01/21 20:25:16;;;;;;;50.70;32.70;;;12.30;73.20;;;;;;5250831;28;20048;-36
2022/01/21 20:27:48;;;;;;;61.60;41.60;;;12.40;73.30;;;;;;5267322;28;20527;-33
2022/01/21 20:30:20;;;;;;;17.40;10.70;;;12.40;73.10;;;;;;5265885;28;20044;-34
2022/01/21 20:32:51;;;;;;;30.57;18.07;;;12.40;73.20;;;;;;5267297;28;20062;-35
2022/01/21 20:35:23;;;;;;;20.63;13.10;;;12.40;72.90;;;;;;5267277;28;20043;-33
2022/01/21 20:37:54;;;;;;;10.23;5.63;;;12.50;72.90;;;;;;5267283;28;20047;-35
2022/01/21 20:42:58;;;;;;;133.17;68.57;;;12.50;73.90;;;;;;5267040;28;20416;-36
2022/01/21 20:45:29;;;;;;;21.47;12.67;;;12.50;73.90;;;;;;5266820;28;20486;-32
2022/01/21 20:48:00;;;;;;;15.03;8.33;;;12.50;74.00;;;;;;5267311;28;20032;-33
2022/01/21 20:50:31;;;;;;;35.80;18.73;;;12.60;73.80;;;;;;5267226;28;20063;-30
2022/01/21 20:53:03;;;;;;;33.80;18.43;;;12.60;73.70;;;;;;5253111;28;20407;-30
2022/01/21 20:55:34;;;;;;;27.50;15.33;;;12.60;73.70;;;;;;5267034;28;20104;-30
2022/01/21 20:58:05;;;;;;;51.23;28.13;;;12.50;73.50;;;;;;5267046;28;20477;-34
2022/01/21 21:00:36;;;;;;;52.17;29.23;;;12.60;73.30;;;;;;5265882;28;20062;-32
2022/01/21 21:03:07;;;;;;;86.73;50.23;;;12.50;73.30;;;;;;5266702;28;20051;-33
2022/01/21 21:05:38;;;;;;;96.83;55.57;;;12.50;73.20;;;;;;5267089;28;20056;-35
2022/01/21 21:08:10;;;;;;;186.83;103.13;;;12.50;72.90;;;;;;5266973;28;20040;-36
2022/01/21 21:10:41;;;;;;;227.43;128.80;;;12.50;72.90;;;;;;5267321;28;20066;-35
2022/01/21 21:13:12;;;;;;;119.50;67.40;;;12.60;72.70;;;;;;5269236;28;20473;-32
2022/01/21 21:15:45;;;;;;;138.27;75.37;;;12.50;72.60;;;;;;5269171;28;20132;-32
2022/01/21 21:26:26;;;;;;;50.23;30.43;;;12.60;72.20;;;;;;5268859;28;20064;-36
2022/01/21 21:29:09;;;;;;;74.67;47.17;;;12.60;72.00;;;;;;5267279;28;20136;-36
2022/01/21 22:28:16;;;;;;;132.83;83.97;;;12.50;71.20;;;;;;5272167;28;20549;-36
2022/01/21 23:00:38;;;;;;;84.70;45.33;;;12.80;71.10;;;;;;5269386;28;20044;-33
2022/01/21 23:03:12;;;;;;;51.90;29.37;;;12.80;71.00;;;;;;5271891;28;20044;-34
2022/01/21 23:05:43;;;;;;;12.45;8.38;;;12.80;71.20;;;;;;5271008;28;20044;-34
2022/01/21 23:08:24;;;;;;;37.73;23.70;;;12.80;71.50;;;;;;5271644;28;20074;-35
2022/01/21 23:10:56;;;;;;;20.80;13.63;;;12.80;71.40;;;;;;5270921;28;20051;-36
2022/01/21 23:13:27;;;;;;;40.70;25.03;;;12.90;71.40;;;;;;5270164;28;20074;-33
2022/01/21 23:15:58;;;;;;;13.43;9.03;;;12.90;71.30;;;;;;5269445;28;20044;-33
2022/01/21 23:18:30;;;;;;;28.07;16.13;;;12.80;71.80;;;;;;5270010;28;20048;-31
2022/01/21 23:21:02;;;;;;;29.40;16.27;;;12.90;72.90;;;;;;5270289;28;20044;-34
2022/01/21 23:23:33;;;;;;;37.27;22.20;;;12.90;72.90;;;;;;5269958;28;20528;-33
2022/01/21 23:26:07;;;;;;;65.90;42.93;;;13.00;72.70;;;;;;5270471;28;20050;-33
2022/01/21 23:29:10;;;;;;;15.53;9.27;;;13.00;72.30;;;;;;5269350;28;20093;-33
2022/01/21 23:31:33;;;;;;;13.70;7.87;;;13.00;72.30;;;;;;5270539;28;20054;-35
2022/01/21 23:34:06;;;;;;;18.63;11.60;;;13.00;72.20;;;;;;5270434;28;20059;-32
2022/01/21 23:36:39;;;;;;;23.17;14.40;;;13.00;71.90;;;;;;5270242;28;20054;-36
2022/01/21 23:42:04;;;;;;;39.25;25.88;;;13.00;71.90;;;;;;5270594;28;20044;-30
2022/01/21 23:44:35;;;;;;;36.67;23.03;;;13.00;71.70;;;;;;5270220;28;20090;-34
2022/01/21 23:47:12;;;;;;;16.83;9.80;;;13.00;71.90;;;;;;5270529;28;20432;-32
2022/01/21 23:49:44;;;;;;;28.50;17.57;;;13.00;71.60;;;;;;5270368;28;20094;-34
2022/01/21 23:52:15;;;;;;;37.73;24.13;;;13.00;71.40;;;;;;5270647;28;20374;-32
2022/01/21 23:54:47;;;;;;;41.17;24.23;;;13.00;71.30;;;;;;5269608;28;20047;-33
2022/01/21 23:57:18;;;;;;;51.40;28.83;;;13.00;71.00;;;;;;5269870;28;20043;-32
2022/01/21 23:59:49;;;;;;;47.43;27.43;;;13.00;70.90;;;;;;5270260;28;20040;-32
